sensor_id;sensor_type;location;lat;lon;timestamp;P1;durP1;ratioP1;P2;durP2;ratioP2
44440;SDS011;30146;52.268;20.944;2022-07-10T00:01:58;3.50;;;2.50;;
44440;SDS011;30146;52.268;20.944;2022-07-10T00:04:29;3.70;;;2.50;;
44440;SDS011;30146;52.268;20.944;2022-07-10T00:07:00;4.40;;;2.90;;
44440;SDS011;30146;52.268;20.944;2022-07-10T00:09:32;3.40;;;2.40;;
44440;SDS011;30146;52.268;20.944;2022-07-10T00:12:05;3.60;;;2.40;;
44440;SDS011;30146;52.268;20.944;2022-07-10T00:14:37;3.50;;;2.40;;
44440;SDS011;30146;52.268;20.944;2022-07-10T00:17:08;8.40;;;3.80;;
44440;SDS011;30146;52.268;20.944;2022-07-10T00:19:39;4.40;;;2.60;;
44440;SDS011;30146;52.268;20.944;2022-07-10T00:22:10;4.40;;;2.30;;
44440;SDS011;30146;52.268;20.944;2022-07-10T00:24:41;3.20;;;2.10;;
44440;SDS011;30146;52.268;20.944;2022-07-10T00:27:13;5.00;;;2.10;;
44440;SDS011;30146;52.268;20.944;2022-07-10T00:29:44;4.40;;;2.40;;
44440;SDS011;30146;52.268;20.944;2022-07-10T00:32:15;5.90;;;2.40;;
44440;SDS011;30146;52.268;20.944;2022-07-10T00:34:46;3.10;;;2.60;;
44440;SDS011;30146;52.268;20.944;2022-07-10T00:37:17;5.80;;;2.80;;
44440;SDS011;30146;52.268;20.944;2022-07-10T00:39:49;5.10;;;2.90;;
44440;SDS011;30146;52.268;20.944;2022-07-10T00:42:20;5.30;;;2.80;;
44440;SDS011;30146;52.268;20.944;2022-07-10T00:44:52;4.70;;;2.60;;
44440;SDS011;30146;52.268;20.944;2022-07-10T00:47:23;5.40;;;2.60;;
44440;SDS011;30146;52.268;20.944;2022-07-10T00:49:54;7.20;;;2.60;;
44440;SDS011;30146;52.268;20.944;2022-07-10T00:52:25;3.70;;;2.20;;
44440;SDS011;30146;52.268;20.944;2022-07-10T00:54:57;7.70;;;3.10;;
44440;SDS011;30146;52.268;20.944;2022-07-10T00:57:29;5.40;;;2.60;;
44440;SDS011;30146;52.268;20.944;2022-07-10T01:00:00;5.00;;;2.40;;
44440;SDS011;30146;52.268;20.944;2022-07-10T01:02:32;3.20;;;2.50;;
44440;SDS011;30146;52.268;20.944;2022-07-10T01:05:04;3.30;;;2.20;;
44440;SDS011;30146;52.268;20.944;2022-07-10T01:07:35;3.90;;;2.70;;
44440;SDS011;30146;52.268;20.944;2022-07-10T01:10:07;3.10;;;2.40;;
44440;SDS011;30146;52.268;20.944;2022-07-10T01:12:39;5.30;;;2.80;;
44440;SDS011;30146;52.268;20.944;2022-07-10T01:15:12;4.80;;;2.50;;
44440;SDS011;30146;52.268;20.944;2022-07-10T01:17:44;3.80;;;2.70;;
44440;SDS011;30146;52.268;20.944;2022-07-10T01:20:17;6.40;;;2.90;;
44440;SDS011;30146;52.268;20.944;2022-07-10T01:22:48;5.50;;;2.70;;
44440;SDS011;30146;52.268;20.944;2022-07-10T01:25:19;5.40;;;3.30;;
44440;SDS011;30146;52.268;20.944;2022-07-10T01:27:50;4.60;;;2.80;;
44440;SDS011;30146;52.268;20.944;2022-07-10T01:30:22;5.30;;;2.80;;
44440;SDS011;30146;52.268;20.944;2022-07-10T01:32:53;5.70;;;2.80;;
44440;SDS011;30146;52.268;20.944;2022-07-10T01:35:24;5.60;;;2.70;;
44440;SDS011;30146;52.268;20.944;2022-07-10T01:37:56;5.60;;;3.20;;
44440;SDS011;30146;52.268;20.944;2022-07-10T01:40:27;3.50;;;2.60;;
44440;SDS011;30146;52.268;20.944;2022-07-10T01:42:58;4.10;;;2.60;;
44440;SDS011;30146;52.268;20.944;2022-07-10T01:45:29;4.00;;;2.60;;
44440;SDS011;30146;52.268;20.944;2022-07-10T01:48:02;3.60;;;2.30;;
44440;SDS011;30146;52.268;20.944;2022-07-10T01:50:33;16.00;;;3.20;;
44440;SDS011;30146;52.268;20.944;2022-07-10T01:53:04;5.70;;;3.10;;
44440;SDS011;30146;52.268;20.944;2022-07-10T01:55:36;8.00;;;2.70;;
44440;SDS011;30146;52.268;20.944;2022-07-10T01:58:07;16.10;;;3.60;;
44440;SDS011;30146;52.268;20.944;2022-07-10T02:00:38;4.40;;;2.80;;
44440;SDS011;30146;52.268;20.944;2022-07-10T02:03:09;7.00;;;2.60;;
44440;SDS011;30146;52.268;20.944;2022-07-10T02:05:58;3.30;;;2.50;;
44440;SDS011;30146;52.268;20.944;2022-07-10T02:08:29;7.80;;;3.00;;
44440;SDS011;30146;52.268;20.944;2022-07-10T02:11:01;3.10;;;2.60;;
44440;SDS011;30146;52.268;20.944;2022-07-10T02:13:32;4.10;;;2.50;;
44440;SDS011;30146;52.268;20.944;2022-07-10T02:16:03;4.10;;;2.40;;
44440;SDS011;30146;52.268;20.944;2022-07-10T02:18:35;5.90;;;2.30;;
44440;SDS011;30146;52.268;20.944;2022-07-10T02:21:08;5.80;;;2.70;;
44440;SDS011;30146;52.268;20.944;2022-07-10T02:23:40;3.90;;;2.30;;
44440;SDS011;30146;52.268;20.944;2022-07-10T02:26:11;5.00;;;2.70;;
44440;SDS011;30146;52.268;20.944;2022-07-10T02:28:42;5.20;;;2.50;;
44440;SDS011;30146;52.268;20.944;2022-07-10T02:31:13;3.00;;;2.60;;
44440;SDS011;30146;52.268;20.944;2022-07-10T02:33:45;2.90;;;2.30;;
44440;SDS011;30146;52.268;20.944;2022-07-10T02:36:16;4.30;;;2.80;;
44440;SDS011;30146;52.268;20.944;2022-07-10T02:38:47;4.80;;;2.70;;
44440;SDS011;30146;52.268;20.944;2022-07-10T02:41:18;5.60;;;2.80;;
44440;SDS011;30146;52.268;20.944;2022-07-10T02:43:49;3.80;;;2.30;;
44440;SDS011;30146;52.268;20.944;2022-07-10T02:46:20;4.00;;;2.60;;
44440;SDS011;30146;52.268;20.944;2022-07-10T02:48:51;5.40;;;2.90;;
44440;SDS011;30146;52.268;20.944;2022-07-10T02:51:23;5.00;;;2.90;;
44440;SDS011;30146;52.268;20.944;2022-07-10T02:53:54;5.10;;;2.90;;
44440;SDS011;30146;52.268;20.944;2022-07-10T02:56:25;3.80;;;2.60;;
44440;SDS011;30146;52.268;20.944;2022-07-10T02:58:56;3.50;;;2.50;;
44440;SDS011;30146;52.268;20.944;2022-07-10T03:01:28;6.00;;;2.50;;
44440;SDS011;30146;52.268;20.944;2022-07-10T03:03:59;6.20;;;2.90;;
44440;SDS011;30146;52.268;20.944;2022-07-10T03:06:30;5.00;;;2.80;;
44440;SDS011;30146;52.268;20.944;2022-07-10T03:09:01;4.60;;;2.60;;
44440;SDS011;30146;52.268;20.944;2022-07-10T03:11:33;4.90;;;2.90;;
44440;SDS011;30146;52.268;20.944;2022-07-10T03:14:04;4.60;;;2.80;;
44440;SDS011;30146;52.268;20.944;2022-07-10T03:16:35;3.50;;;2.90;;
44440;SDS011;30146;52.268;20.944;2022-07-10T03:19:06;6.30;;;2.90;;
44440;SDS011;30146;52.268;20.944;2022-07-10T03:21:37;6.10;;;2.90;;
44440;SDS011;30146;52.268;20.944;2022-07-10T03:24:09;4.70;;;2.80;;
44440;SDS011;30146;52.268;20.944;2022-07-10T03:26:40;5.50;;;3.00;;
44440;SDS011;30146;52.268;20.944;2022-07-10T03:29:12;4.10;;;2.90;;
44440;SDS011;30146;52.268;20.944;2022-07-10T03:31:49;4.90;;;2.80;;
44440;SDS011;30146;52.268;20.944;2022-07-10T03:34:20;3.90;;;3.10;;
44440;SDS011;30146;52.268;20.944;2022-07-10T03:36:52;4.90;;;3.30;;
44440;SDS011;30146;52.268;20.944;2022-07-10T03:39:23;5.50;;;3.30;;
44440;SDS011;30146;52.268;20.944;2022-07-10T03:41:54;4.60;;;3.10;;
44440;SDS011;30146;52.268;20.944;2022-07-10T03:44:25;5.80;;;3.10;;
44440;SDS011;30146;52.268;20.944;2022-07-10T03:46:56;4.00;;;2.60;;
44440;SDS011;30146;52.268;20.944;2022-07-10T03:49:27;6.20;;;2.80;;
44440;SDS011;30146;52.268;20.944;2022-07-10T03:51:59;6.40;;;3.00;;
44440;SDS011;30146;52.268;20.944;2022-07-10T03:54:32;4.40;;;2.40;;
44440;SDS011;30146;52.268;20.944;2022-07-10T03:57:04;5.50;;;3.00;;
44440;SDS011;30146;52.268;20.944;2022-07-10T04:00:01;5.80;;;2.70;;
44440;SDS011;30146;52.268;20.944;2022-07-10T04:02:38;4.10;;;2.80;;
44440;SDS011;30146;52.268;20.944;2022-07-10T04:05:10;4.90;;;2.90;;
44440;SDS011;30146;52.268;20.944;2022-07-10T04:07:41;4.30;;;2.90;;
44440;SDS011;30146;52.268;20.944;2022-07-10T04:10:12;5.10;;;2.70;;
44440;SDS011;30146;52.268;20.944;2022-07-10T04:12:44;5.50;;;2.70;;
44440;SDS011;30146;52.268;20.944;2022-07-10T04:15:15;8.70;;;3.00;;
44440;SDS011;30146;52.268;20.944;2022-07-10T04:17:47;6.50;;;2.60;;
44440;SDS011;30146;52.268;20.944;2022-07-10T04:20:19;4.90;;;3.10;;
44440;SDS011;30146;52.268;20.944;2022-07-10T04:22:51;4.60;;;2.80;;
44440;SDS011;30146;52.268;20.944;2022-07-10T04:25:22;13.20;;;2.90;;
44440;SDS011;30146;52.268;20.944;2022-07-10T04:27:53;3.50;;;2.40;;
44440;SDS011;30146;52.268;20.944;2022-07-10T04:30:24;4.10;;;2.60;;
44440;SDS011;30146;52.268;20.944;2022-07-10T04:32:55;4.90;;;2.60;;
44440;SDS011;30146;52.268;20.944;2022-07-10T04:35:26;5.10;;;2.60;;
44440;SDS011;30146;52.268;20.944;2022-07-10T04:37:58;7.80;;;5.80;;
44440;SDS011;30146;52.268;20.944;2022-07-10T04:40:29;5.30;;;2.80;;
44440;SDS011;30146;52.268;20.944;2022-07-10T04:43:00;3.40;;;2.40;;
44440;SDS011;30146;52.268;20.944;2022-07-10T04:45:31;6.70;;;2.40;;
44440;SDS011;30146;52.268;20.944;2022-07-10T04:48:02;6.40;;;2.70;;
44440;SDS011;30146;52.268;20.944;2022-07-10T04:50:35;4.10;;;2.20;;
44440;SDS011;30146;52.268;20.944;2022-07-10T04:53:06;7.30;;;2.80;;
44440;SDS011;30146;52.268;20.944;2022-07-10T04:55:37;6.00;;;2.60;;
44440;SDS011;30146;52.268;20.944;2022-07-10T04:58:08;4.90;;;2.20;;
44440;SDS011;30146;52.268;20.944;2022-07-10T05:00:39;14.90;;;2.50;;
44440;SDS011;30146;52.268;20.944;2022-07-10T05:03:10;4.50;;;2.20;;
44440;SDS011;30146;52.268;20.944;2022-07-10T05:05:44;4.30;;;2.70;;
44440;SDS011;30146;52.268;20.944;2022-07-10T05:08:15;3.20;;;2.00;;
44440;SDS011;30146;52.268;20.944;2022-07-10T05:10:47;5.10;;;2.00;;
44440;SDS011;30146;52.268;20.944;2022-07-10T05:13:18;5.70;;;1.80;;
44440;SDS011;30146;52.268;20.944;2022-07-10T05:15:49;4.00;;;1.90;;
44440;SDS011;30146;52.268;20.944;2022-07-10T05:18:21;4.70;;;1.70;;
44440;SDS011;30146;52.268;20.944;2022-07-10T05:20:52;4.60;;;2.10;;
44440;SDS011;30146;52.268;20.944;2022-07-10T05:23:23;4.20;;;1.60;;
44440;SDS011;30146;52.268;20.944;2022-07-10T05:25:54;6.40;;;1.80;;
44440;SDS011;30146;52.268;20.944;2022-07-10T05:28:26;3.40;;;1.70;;
44440;SDS011;30146;52.268;20.944;2022-07-10T05:30:57;6.50;;;1.70;;
44440;SDS011;30146;52.268;20.944;2022-07-10T05:33:28;4.80;;;1.60;;
44440;SDS011;30146;52.268;20.944;2022-07-10T05:36:00;2.30;;;1.20;;
44440;SDS011;30146;52.268;20.944;2022-07-10T05:38:32;4.70;;;1.60;;
44440;SDS011;30146;52.268;20.944;2022-07-10T05:41:04;7.80;;;2.30;;
44440;SDS011;30146;52.268;20.944;2022-07-10T05:43:35;6.50;;;2.80;;
44440;SDS011;30146;52.268;20.944;2022-07-10T05:46:06;12.00;;;1.90;;
44440;SDS011;30146;52.268;20.944;2022-07-10T05:48:38;2.70;;;1.60;;
44440;SDS011;30146;52.268;20.944;2022-07-10T05:51:10;2.50;;;1.70;;
44440;SDS011;30146;52.268;20.944;2022-07-10T05:54:01;7.10;;;1.60;;
44440;SDS011;30146;52.268;20.944;2022-07-10T05:56:32;4.20;;;1.80;;
44440;SDS011;30146;52.268;20.944;2022-07-10T05:59:03;4.50;;;1.60;;
44440;SDS011;30146;52.268;20.944;2022-07-10T06:01:35;5.90;;;1.70;;
44440;SDS011;30146;52.268;20.944;2022-07-10T06:04:06;3.10;;;1.60;;
44440;SDS011;30146;52.268;20.944;2022-07-10T06:06:37;6.20;;;1.90;;
44440;SDS011;30146;52.268;20.944;2022-07-10T06:09:10;8.40;;;2.60;;
44440;SDS011;30146;52.268;20.944;2022-07-10T06:11:41;4.90;;;2.20;;
44440;SDS011;30146;52.268;20.944;2022-07-10T06:14:14;6.70;;;2.00;;
44440;SDS011;30146;52.268;20.944;2022-07-10T06:16:45;4.50;;;2.00;;
44440;SDS011;30146;52.268;20.944;2022-07-10T06:19:16;5.80;;;1.80;;
44440;SDS011;30146;52.268;20.944;2022-07-10T06:21:48;5.10;;;2.20;;
44440;SDS011;30146;52.268;20.944;2022-07-10T06:24:39;6.30;;;1.80;;
44440;SDS011;30146;52.268;20.944;2022-07-10T06:27:11;11.30;;;2.40;;
44440;SDS011;30146;52.268;20.944;2022-07-10T06:29:43;6.20;;;2.00;;
44440;SDS011;30146;52.268;20.944;2022-07-10T06:32:16;6.00;;;2.30;;
44440;SDS011;30146;52.268;20.944;2022-07-10T06:34:48;9.30;;;2.30;;
44440;SDS011;30146;52.268;20.944;2022-07-10T06:37:20;4.80;;;2.30;;
44440;SDS011;30146;52.268;20.944;2022-07-10T06:39:52;5.30;;;2.70;;
44440;SDS011;30146;52.268;20.944;2022-07-10T06:42:24;5.00;;;2.50;;
44440;SDS011;30146;52.268;20.944;2022-07-10T06:45:01;4.00;;;2.70;;
44440;SDS011;30146;52.268;20.944;2022-07-10T06:47:33;7.40;;;3.00;;
44440;SDS011;30146;52.268;20.944;2022-07-10T06:50:25;11.30;;;2.80;;
44440;SDS011;30146;52.268;20.944;2022-07-10T06:53:02;4.80;;;2.70;;
44440;SDS011;30146;52.268;20.944;2022-07-10T06:55:35;7.70;;;3.30;;
44440;SDS011;30146;52.268;20.944;2022-07-10T06:58:07;4.40;;;3.10;;
44440;SDS011;30146;52.268;20.944;2022-07-10T07:00:39;5.30;;;2.90;;
44440;SDS011;30146;52.268;20.944;2022-07-10T07:03:10;6.40;;;2.60;;
44440;SDS011;30146;52.268;20.944;2022-07-10T07:05:44;6.10;;;3.10;;
44440;SDS011;30146;52.268;20.944;2022-07-10T07:08:16;6.50;;;3.20;;
44440;SDS011;30146;52.268;20.944;2022-07-10T07:10:48;6.40;;;2.70;;
44440;SDS011;30146;52.268;20.944;2022-07-10T07:13:19;3.60;;;2.70;;
44440;SDS011;30146;52.268;20.944;2022-07-10T07:15:51;4.00;;;2.50;;
44440;SDS011;30146;52.268;20.944;2022-07-10T07:18:29;6.90;;;2.70;;
44440;SDS011;30146;52.268;20.944;2022-07-10T07:21:04;7.50;;;2.70;;
44440;SDS011;30146;52.268;20.944;2022-07-10T07:23:53;4.00;;;2.60;;
44440;SDS011;30146;52.268;20.944;2022-07-10T07:26:25;5.00;;;2.60;;
44440;SDS011;30146;52.268;20.944;2022-07-10T07:28:59;5.70;;;2.50;;
44440;SDS011;30146;52.268;20.944;2022-07-10T07:31:31;8.50;;;3.10;;
44440;SDS011;30146;52.268;20.944;2022-07-10T07:34:04;16.00;;;2.90;;
44440;SDS011;30146;52.268;20.944;2022-07-10T07:36:35;10.20;;;3.00;;
44440;SDS011;30146;52.268;20.944;2022-07-10T07:39:07;4.70;;;2.60;;
44440;SDS011;30146;52.268;20.944;2022-07-10T07:41:41;6.00;;;2.60;;
44440;SDS011;30146;52.268;20.944;2022-07-10T07:44:16;4.40;;;2.60;;
44440;SDS011;30146;52.268;20.944;2022-07-10T07:46:57;6.90;;;3.00;;
44440;SDS011;30146;52.268;20.944;2022-07-10T07:49:28;3.90;;;2.70;;
44440;SDS011;30146;52.268;20.944;2022-07-10T07:52:00;8.90;;;2.40;;
44440;SDS011;30146;52.268;20.944;2022-07-10T07:54:32;5.90;;;2.20;;
44440;SDS011;30146;52.268;20.944;2022-07-10T07:57:04;6.00;;;2.30;;
44440;SDS011;30146;52.268;20.944;2022-07-10T07:59:36;5.30;;;2.20;;
44440;SDS011;30146;52.268;20.944;2022-07-10T08:02:09;12.30;;;2.80;;
44440;SDS011;30146;52.268;20.944;2022-07-10T08:04:44;9.20;;;2.60;;
44440;SDS011;30146;52.268;20.944;2022-07-10T08:07:16;9.20;;;2.40;;
44440;SDS011;30146;52.268;20.944;2022-07-10T08:09:50;3.40;;;1.90;;
44440;SDS011;30146;52.268;20.944;2022-07-10T08:12:21;6.90;;;2.20;;
44440;SDS011;30146;52.268;20.944;2022-07-10T08:14:53;3.90;;;1.80;;
44440;SDS011;30146;52.268;20.944;2022-07-10T08:17:26;5.10;;;2.50;;
44440;SDS011;30146;52.268;20.944;2022-07-10T08:19:58;5.70;;;1.90;;
44440;SDS011;30146;52.268;20.944;2022-07-10T08:22:37;6.50;;;2.00;;
44440;SDS011;30146;52.268;20.944;2022-07-10T08:27:40;5.60;;;2.10;;
44440;SDS011;30146;52.268;20.944;2022-07-10T08:30:12;7.90;;;2.40;;
44440;SDS011;30146;52.268;20.944;2022-07-10T08:32:46;11.40;;;2.50;;
44440;SDS011;30146;52.268;20.944;2022-07-10T08:35:17;7.60;;;1.80;;
44440;SDS011;30146;52.268;20.944;2022-07-10T08:37:49;6.80;;;2.50;;
44440;SDS011;30146;52.268;20.944;2022-07-10T08:40:22;5.40;;;2.30;;
44440;SDS011;30146;52.268;20.944;2022-07-10T08:42:53;5.90;;;2.00;;
44440;SDS011;30146;52.268;20.944;2022-07-10T08:45:25;4.50;;;1.80;;
44440;SDS011;30146;52.268;20.944;2022-07-10T08:48:03;5.20;;;1.40;;
44440;SDS011;30146;52.268;20.944;2022-07-10T08:50:41;4.60;;;1.70;;
44440;SDS011;30146;52.268;20.944;2022-07-10T08:53:29;4.10;;;1.70;;
44440;SDS011;30146;52.268;20.944;2022-07-10T08:56:04;5.60;;;1.80;;
44440;SDS011;30146;52.268;20.944;2022-07-10T08:58:36;5.60;;;2.30;;
44440;SDS011;30146;52.268;20.944;2022-07-10T09:01:09;5.00;;;2.30;;
44440;SDS011;30146;52.268;20.944;2022-07-10T09:03:41;8.70;;;2.10;;
44440;SDS011;30146;52.268;20.944;2022-07-10T09:09:01;6.10;;;2.40;;
44440;SDS011;30146;52.268;20.944;2022-07-10T09:11:33;8.80;;;2.30;;
44440;SDS011;30146;52.268;20.944;2022-07-10T09:14:08;4.90;;;1.80;;
44440;SDS011;30146;52.268;20.944;2022-07-10T09:17:00;3.70;;;1.50;;
44440;SDS011;30146;52.268;20.944;2022-07-10T09:19:40;7.00;;;1.90;;
44440;SDS011;30146;52.268;20.944;2022-07-10T09:22:13;4.50;;;1.70;;
44440;SDS011;30146;52.268;20.944;2022-07-10T09:24:45;6.40;;;2.50;;
44440;SDS011;30146;52.268;20.944;2022-07-10T09:27:24;2.30;;;1.30;;
44440;SDS011;30146;52.268;20.944;2022-07-10T09:29:55;6.90;;;1.60;;
44440;SDS011;30146;52.268;20.944;2022-07-10T09:32:28;5.00;;;1.80;;
44440;SDS011;30146;52.268;20.944;2022-07-10T09:35:00;3.10;;;1.40;;
44440;SDS011;30146;52.268;20.944;2022-07-10T09:37:57;5.70;;;1.60;;
44440;SDS011;30146;52.268;20.944;2022-07-10T09:40:36;3.10;;;1.70;;
44440;SDS011;30146;52.268;20.944;2022-07-10T09:43:08;7.00;;;1.80;;
44440;SDS011;30146;52.268;20.944;2022-07-10T09:45:42;4.40;;;2.00;;
44440;SDS011;30146;52.268;20.944;2022-07-10T09:48:13;3.20;;;1.90;;
44440;SDS011;30146;52.268;20.944;2022-07-10T09:50:52;3.80;;;1.60;;
44440;SDS011;30146;52.268;20.944;2022-07-10T09:53:24;4.00;;;1.30;;
44440;SDS011;30146;52.268;20.944;2022-07-10T09:55:57;5.60;;;1.80;;
44440;SDS011;30146;52.268;20.944;2022-07-10T09:58:37;7.00;;;1.80;;
44440;SDS011;30146;52.268;20.944;2022-07-10T10:01:11;6.30;;;1.80;;
44440;SDS011;30146;52.268;20.944;2022-07-10T10:03:44;2.80;;;1.40;;
44440;SDS011;30146;52.268;20.944;2022-07-10T10:06:18;3.90;;;1.90;;
44440;SDS011;30146;52.268;20.944;2022-07-10T10:08:54;3.40;;;1.60;;
44440;SDS011;30146;52.268;20.944;2022-07-10T10:11:35;3.80;;;1.20;;
44440;SDS011;30146;52.268;20.944;2022-07-10T10:14:07;3.10;;;1.20;;
44440;SDS011;30146;52.268;20.944;2022-07-10T10:16:39;6.50;;;1.80;;
44440;SDS011;30146;52.268;20.944;2022-07-10T10:19:13;5.40;;;1.20;;
44440;SDS011;30146;52.268;20.944;2022-07-10T10:22:05;2.80;;;1.20;;
44440;SDS011;30146;52.268;20.944;2022-07-10T10:24:43;2.60;;;1.10;;
44440;SDS011;30146;52.268;20.944;2022-07-10T10:27:14;1.80;;;0.80;;
44440;SDS011;30146;52.268;20.944;2022-07-10T10:29:47;3.30;;;0.80;;
44440;SDS011;30146;52.268;20.944;2022-07-10T10:32:20;1.20;;;0.70;;
44440;SDS011;30146;52.268;20.944;2022-07-10T10:34:52;4.60;;;1.10;;
44440;SDS011;30146;52.268;20.944;2022-07-10T10:37:35;4.30;;;1.60;;
44440;SDS011;30146;52.268;20.944;2022-07-10T10:40:08;3.80;;;0.90;;
44440;SDS011;30146;52.268;20.944;2022-07-10T10:42:59;3.80;;;1.20;;
44440;SDS011;30146;52.268;20.944;2022-07-10T10:45:48;3.30;;;1.00;;
44440;SDS011;30146;52.268;20.944;2022-07-10T10:48:21;2.80;;;1.20;;
44440;SDS011;30146;52.268;20.944;2022-07-10T10:51:09;3.30;;;1.40;;
44440;SDS011;30146;52.268;20.944;2022-07-10T10:53:41;3.80;;;1.60;;
44440;SDS011;30146;52.268;20.944;2022-07-10T10:56:23;6.80;;;1.60;;
44440;SDS011;30146;52.268;20.944;2022-07-10T10:58:57;8.10;;;2.10;;
44440;SDS011;30146;52.268;20.944;2022-07-10T11:01:32;3.60;;;1.40;;
44440;SDS011;30146;52.268;20.944;2022-07-10T11:04:19;2.90;;;1.50;;
44440;SDS011;30146;52.268;20.944;2022-07-10T11:06:52;2.40;;;1.00;;
44440;SDS011;30146;52.268;20.944;2022-07-10T11:09:26;5.20;;;2.30;;
44440;SDS011;30146;52.268;20.944;2022-07-10T11:12:04;4.30;;;1.30;;
44440;SDS011;30146;52.268;20.944;2022-07-10T11:14:37;4.80;;;1.60;;
44440;SDS011;30146;52.268;20.944;2022-07-10T11:17:11;3.00;;;1.10;;
44440;SDS011;30146;52.268;20.944;2022-07-10T11:19:43;5.50;;;1.60;;
44440;SDS011;30146;52.268;20.944;2022-07-10T11:22:22;3.70;;;1.20;;
44440;SDS011;30146;52.268;20.944;2022-07-10T11:25:18;4.60;;;1.40;;
44440;SDS011;30146;52.268;20.944;2022-07-10T11:28:03;4.40;;;1.70;;
44440;SDS011;30146;52.268;20.944;2022-07-10T11:30:47;5.10;;;1.20;;
44440;SDS011;30146;52.268;20.944;2022-07-10T11:33:22;4.40;;;1.30;;
44440;SDS011;30146;52.268;20.944;2022-07-10T11:35:54;3.50;;;1.40;;
44440;SDS011;30146;52.268;20.944;2022-07-10T11:38:26;4.70;;;1.30;;
44440;SDS011;30146;52.268;20.944;2022-07-10T11:40:59;5.70;;;2.60;;
44440;SDS011;30146;52.268;20.944;2022-07-10T11:43:32;4.00;;;2.00;;
44440;SDS011;30146;52.268;20.944;2022-07-10T11:46:07;3.00;;;1.30;;
44440;SDS011;30146;52.268;20.944;2022-07-10T11:48:41;4.30;;;1.60;;
44440;SDS011;30146;52.268;20.944;2022-07-10T11:51:23;4.90;;;1.60;;
44440;SDS011;30146;52.268;20.944;2022-07-10T11:53:57;3.60;;;1.60;;
44440;SDS011;30146;52.268;20.944;2022-07-10T11:56:31;4.20;;;1.40;;
44440;SDS011;30146;52.268;20.944;2022-07-10T11:59:10;5.40;;;1.30;;
44440;SDS011;30146;52.268;20.944;2022-07-10T12:01:43;2.00;;;1.00;;
44440;SDS011;30146;52.268;20.944;2022-07-10T12:04:16;4.20;;;1.40;;
44440;SDS011;30146;52.268;20.944;2022-07-10T12:06:51;3.80;;;1.40;;
44440;SDS011;30146;52.268;20.944;2022-07-10T12:09:24;4.00;;;1.30;;
44440;SDS011;30146;52.268;20.944;2022-07-10T12:11:59;3.30;;;1.20;;
44440;SDS011;30146;52.268;20.944;2022-07-10T12:14:33;2.90;;;1.10;;
44440;SDS011;30146;52.268;20.944;2022-07-10T12:17:11;4.50;;;1.20;;
44440;SDS011;30146;52.268;20.944;2022-07-10T12:19:44;4.10;;;1.20;;
44440;SDS011;30146;52.268;20.944;2022-07-10T12:22:19;2.70;;;1.10;;
44440;SDS011;30146;52.268;20.944;2022-07-10T12:24:52;4.60;;;1.30;;
44440;SDS011;30146;52.268;20.944;2022-07-10T12:30:10;5.90;;;1.30;;
44440;SDS011;30146;52.268;20.944;2022-07-10T12:32:42;6.20;;;1.90;;
44440;SDS011;30146;52.268;20.944;2022-07-10T12:35:15;5.00;;;1.50;;
44440;SDS011;30146;52.268;20.944;2022-07-10T12:37:48;7.70;;;2.00;;
44440;SDS011;30146;52.268;20.944;2022-07-10T12:40:33;6.40;;;1.80;;
44440;SDS011;30146;52.268;20.944;2022-07-10T12:43:05;6.30;;;2.50;;
44440;SDS011;30146;52.268;20.944;2022-07-10T12:45:40;6.30;;;2.00;;
44440;SDS011;30146;52.268;20.944;2022-07-10T12:48:20;7.00;;;2.40;;
44440;SDS011;30146;52.268;20.944;2022-07-10T12:50:52;4.40;;;1.40;;
44440;SDS011;30146;52.268;20.944;2022-07-10T12:53:23;7.70;;;1.90;;
44440;SDS011;30146;52.268;20.944;2022-07-10T12:55:58;5.60;;;1.90;;
44440;SDS011;30146;52.268;20.944;2022-07-10T12:58:30;4.30;;;1.50;;
44440;SDS011;30146;52.268;20.944;2022-07-10T13:01:02;3.20;;;1.30;;
44440;SDS011;30146;52.268;20.944;2022-07-10T13:03:34;4.70;;;2.20;;
44440;SDS011;30146;52.268;20.944;2022-07-10T13:06:06;5.80;;;1.80;;
44440;SDS011;30146;52.268;20.944;2022-07-10T13:08:54;5.60;;;1.60;;
44440;SDS011;30146;52.268;20.944;2022-07-10T13:11:28;4.00;;;1.80;;
44440;SDS011;30146;52.268;20.944;2022-07-10T13:13:59;5.70;;;1.50;;
44440;SDS011;30146;52.268;20.944;2022-07-10T13:16:31;6.40;;;1.90;;
44440;SDS011;30146;52.268;20.944;2022-07-10T13:19:02;5.70;;;1.80;;
44440;SDS011;30146;52.268;20.944;2022-07-10T13:21:34;3.00;;;1.30;;
44440;SDS011;30146;52.268;20.944;2022-07-10T13:24:06;4.20;;;1.70;;
44440;SDS011;30146;52.268;20.944;2022-07-10T13:26:42;2.90;;;1.50;;
44440;SDS011;30146;52.268;20.944;2022-07-10T13:29:14;3.40;;;1.30;;
44440;SDS011;30146;52.268;20.944;2022-07-10T13:31:45;7.50;;;1.80;;
44440;SDS011;30146;52.268;20.944;2022-07-10T13:34:18;3.80;;;1.40;;
44440;SDS011;30146;52.268;20.944;2022-07-10T13:36:52;3.20;;;1.50;;
44440;SDS011;30146;52.268;20.944;2022-07-10T13:39:24;3.10;;;1.50;;
44440;SDS011;30146;52.268;20.944;2022-07-10T13:41:56;11.10;;;2.00;;
44440;SDS011;30146;52.268;20.944;2022-07-10T13:44:28;2.50;;;1.40;;
44440;SDS011;30146;52.268;20.944;2022-07-10T13:47:00;3.60;;;1.60;;
44440;SDS011;30146;52.268;20.944;2022-07-10T13:49:31;5.60;;;1.80;;
44440;SDS011;30146;52.268;20.944;2022-07-10T13:52:03;7.20;;;1.80;;
44440;SDS011;30146;52.268;20.944;2022-07-10T13:54:37;6.20;;;1.80;;
44440;SDS011;30146;52.268;20.944;2022-07-10T13:57:08;6.10;;;2.40;;
44440;SDS011;30146;52.268;20.944;2022-07-10T13:59:40;3.60;;;1.90;;
44440;SDS011;30146;52.268;20.944;2022-07-10T14:02:13;4.20;;;1.40;;
44440;SDS011;30146;52.268;20.944;2022-07-10T14:04:45;5.60;;;1.70;;
44440;SDS011;30146;52.268;20.944;2022-07-10T14:07:16;2.90;;;1.30;;
44440;SDS011;30146;52.268;20.944;2022-07-10T14:09:49;3.40;;;1.30;;
44440;SDS011;30146;52.268;20.944;2022-07-10T14:12:21;6.40;;;1.90;;
44440;SDS011;30146;52.268;20.944;2022-07-10T14:14:54;2.70;;;1.30;;
44440;SDS011;30146;52.268;20.944;2022-07-10T14:17:26;2.10;;;1.30;;
44440;SDS011;30146;52.268;20.944;2022-07-10T14:19:58;3.80;;;1.70;;
44440;SDS011;30146;52.268;20.944;2022-07-10T14:22:29;7.60;;;1.60;;
44440;SDS011;30146;52.268;20.944;2022-07-10T14:25:02;1.90;;;1.20;;
44440;SDS011;30146;52.268;20.944;2022-07-10T14:27:34;2.80;;;1.30;;
44440;SDS011;30146;52.268;20.944;2022-07-10T14:30:07;2.50;;;1.30;;
44440;SDS011;30146;52.268;20.944;2022-07-10T14:32:40;2.30;;;1.10;;
44440;SDS011;30146;52.268;20.944;2022-07-10T14:35:11;3.80;;;1.10;;
44440;SDS011;30146;52.268;20.944;2022-07-10T14:37:43;2.20;;;1.10;;
44440;SDS011;30146;52.268;20.944;2022-07-10T14:40:15;3.60;;;1.10;;
44440;SDS011;30146;52.268;20.944;2022-07-10T14:42:47;2.60;;;1.10;;
44440;SDS011;30146;52.268;20.944;2022-07-10T14:45:23;3.20;;;1.20;;
44440;SDS011;30146;52.268;20.944;2022-07-10T14:48:14;4.70;;;2.80;;
44440;SDS011;30146;52.268;20.944;2022-07-10T14:50:45;1.90;;;1.60;;
44440;SDS011;30146;52.268;20.944;2022-07-10T14:53:17;2.00;;;1.10;;
44440;SDS011;30146;52.268;20.944;2022-07-10T14:55:49;1.80;;;1.10;;
44440;SDS011;30146;52.268;20.944;2022-07-10T14:58:20;1.40;;;1.00;;
44440;SDS011;30146;52.268;20.944;2022-07-10T15:00:52;1.10;;;0.80;;
44440;SDS011;30146;52.268;20.944;2022-07-10T15:03:24;1.90;;;1.00;;
44440;SDS011;30146;52.268;20.944;2022-07-10T15:05:55;2.10;;;1.10;;
44440;SDS011;30146;52.268;20.944;2022-07-10T15:08:26;4.80;;;3.20;;
44440;SDS011;30146;52.268;20.944;2022-07-10T15:10:58;2.10;;;1.20;;
44440;SDS011;30146;52.268;20.944;2022-07-10T15:13:30;4.80;;;1.20;;
44440;SDS011;30146;52.268;20.944;2022-07-10T15:16:03;2.50;;;1.00;;
44440;SDS011;30146;52.268;20.944;2022-07-10T15:18:36;2.60;;;1.10;;